Time;durP1;ratioP1;P1;durP2;ratioP2;P2;SDS_P1;SDS_P2;PMS_P1;PMS_P2;Temp;Humidity;BMP_temperature;BMP_pressure;BME280_temperature;BME280_humidity;BME280_pressure;Samples;Min_cycle;Max_cycle;Signal;HPM_P1;HPM_P2
2021/05/18 00:01:47;;;;;;;6.67;5.67;;;;;;;14.80;81.34;99287.74;1705002;82;21009;-45
2021/05/18 00:04:14;;;;;;;6.87;6.25;;;;;;;14.79;81.27;99286.06;1727940;81;21016;-47
2021/05/18 00:06:41;;;;;;;7.83;5.45;;;;;;;14.78;81.17;99276.80;1727991;81;21037;-46
2021/05/18 00:11:53;;;;;;;7.08;5.47;;;;;;;14.72;80.77;99266.16;1726060;81;21049;-43
2021/05/18 00:14:23;;;;;;;6.15;5.55;;;;;;;14.69;80.61;99267.77;1726086;81;21033;-46
2021/05/18 00:16:52;;;;;;;6.80;5.62;;;;;;;14.65;80.56;99259.69;1710166;82;21050;-45
2021/05/18 00:19:19;;;;;;;5.97;5.37;;;;;;;14.64;80.50;99260.66;1703210;82;21034;-41
2021/05/18 00:21:46;;;;;;;6.72;6.03;;;;;;;14.61;80.40;99259.61;1710045;82;21037;-45
2021/05/18 00:24:13;;;;;;;7.08;5.10;;;;;;;14.60;80.30;99257.43;1705047;83;21509;-46
2021/05/18 00:26:39;;;;;;;6.12;5.53;;;;;;;14.60;80.18;99255.25;1708289;82;21045;-47
2021/05/18 00:29:07;;;;;;;6.20;5.60;;;;;;;14.57;79.98;99251.52;1720789;82;20998;-50
2021/05/18 00:31:33;;;;;;;8.80;6.42;;;;;;;14.49;79.98;99249.03;1719138;82;20998;-48
2021/05/18 00:34:00;;;;;;;7.28;6.42;;;;;;;14.44;80.12;99249.95;1724110;81;21061;-50
2021/05/18 00:36:26;;;;;;;7.17;6.47;;;;;;;14.38;80.23;99241.63;1720283;81;21084;-46
2021/05/18 00:38:53;;;;;;;7.10;6.28;;;;;;;14.35;80.73;99241.92;1709256;82;21011;-48
2021/05/18 00:41:20;;;;;;;6.87;6.20;;;;;;;14.34;80.90;99245.11;1706572;82;20982;-51
2021/05/18 00:43:46;;;;;;;6.00;5.42;;;;;;;14.36;80.98;99249.80;1705435;83;21885;-47
2021/05/18 00:46:13;;;;;;;6.20;5.33;;;;;;;14.36;80.85;99250.31;1773115;80;21001;-52
2021/05/18 00:48:40;;;;;;;7.33;5.25;;;;;;;14.34;80.57;99249.13;1699303;82;21011;-46
2021/05/18 00:51:09;;;;;;;6.62;5.72;;;;;;;14.33;80.32;99251.44;1766544;80;21004;-50
2021/05/18 00:53:38;;;;;;;21.00;7.28;;;;;;;14.34;80.20;99243.77;1764965;80;21504;-46
2021/05/18 00:56:19;;;;;;;8.18;7.35;;;;;;;14.27;80.18;99243.48;1764186;79;21588;-48
2021/05/18 00:58:38;;;;;;;5.58;5.08;;;;;;;14.17;81.00;99241.81;1765260;80;21528;-54
2021/05/18 01:01:18;;;;;;;4.95;4.50;;;;;;;14.06;81.43;99240.97;1704573;82;21553;-45
2021/05/18 01:03:47;;;;;;;4.72;4.33;;;;;;;14.00;81.67;99248.22;1768007;80;21536;-45
2021/05/18 01:09:09;;;;;;;6.03;5.08;;;;;;;14.01;82.00;99250.40;1765153;80;21524;-46
2021/05/18 01:11:48;;;;;;;6.58;5.47;;;;;;;14.03;82.15;99239.89;1765175;80;20993;-48
2021/05/18 01:14:17;;;;;;;6.08;5.47;;;;;;;14.01;82.05;99237.00;1767040;79;21505;-48
2021/05/18 01:16:48;;;;;;;5.33;4.83;;;;;;;14.01;82.20;99239.21;1766807;80;21070;-54
2021/05/18 01:19:17;;;;;;;7.50;6.15;;;;;;;14.04;82.37;99241.60;1766390;80;21025;-46
2021/05/18 01:21:44;;;;;;;6.33;5.72;;;;;;;14.09;82.57;99251.91;1766510;80;20996;-46
2021/05/18 01:24:13;;;;;;;5.95;5.35;;;;;;;14.13;82.71;99247.93;1766121;79;21033;-54
2021/05/18 01:26:43;;;;;;;6.00;5.40;;;;;;;14.16;82.82;99245.46;1706798;82;21501;-47
2021/05/18 01:29:11;;;;;;;6.78;6.10;;;;;;;14.18;82.86;99241.64;1763558;79;21045;-46
2021/05/18 01:31:40;;;;;;;6.25;5.65;;;;;;;14.19;82.94;99231.80;1764581;80;21018;-44
2021/05/18 01:34:06;;;;;;;9.23;6.95;;;;;;;14.18;82.97;99233.61;1767578;80;21060;-43
2021/05/18 01:36:35;;;;;;;11.10;7.03;;;;;;;14.19;83.05;99229.12;1760778;79;21568;-41
2021/05/18 01:39:28;;;;;;;7.70;7.00;;;;;;;14.20;83.40;99229.45;1769639;80;20986;-42
2021/05/18 01:44:23;;;;;;;7.08;6.37;;;;;;;14.21;84.10;99223.96;1767975;79;21033;-51
2021/05/18 01:46:50;;;;;;;8.68;6.03;;;;;;;14.18;84.38;99223.38;1775288;79;21022;-48
2021/05/18 01:49:16;;;;;;;6.80;6.12;;;;;;;14.14;84.52;99218.81;1738397;80;21428;-46
2021/05/18 01:51:55;;;;;;;5.42;4.92;;;;;;;14.15;85.03;99221.00;1780528;79;21044;-43
2021/05/18 01:54:27;;;;;;;5.08;4.62;;;;;;;14.14;85.07;99220.66;1764975;79;21010;-45
2021/05/18 01:59:23;;;;;;;6.08;5.17;;;;;;;14.17;85.12;99209.64;1773472;79;20981;-45
2021/05/18 02:01:55;;;;;;;7.83;5.30;;;;;;;14.19;85.34;99211.19;1773872;80;21072;-45
2021/05/18 02:04:32;;;;;;;6.37;4.90;;;;;;;14.17;86.67;99209.14;1777957;79;20973;-49
2021/05/18 02:07:02;;;;;;;4.95;4.55;;;;;;;14.16;86.83;99209.27;1771358;79;20980;-47
2021/05/18 02:09:29;;;;;;;4.78;4.37;;;;;;;14.15;86.61;99216.47;1777581;79;21559;-51
2021/05/18 02:11:57;;;;;;;5.25;4.75;;;;;;;14.17;86.52;99213.66;1730022;80;20998;-50
2021/05/18 02:14:32;;;;;;;4.62;4.22;;;;;;;14.18;86.36;99216.69;1772251;80;21543;-49
2021/05/18 02:17:14;;;;;;;3.90;3.60;;;;;;;14.17;86.12;99217.19;1773583;80;20982;-51
2021/05/18 02:25:13;;;;;;;5.10;4.70;;;;;;;14.19;85.38;99225.94;1729134;80;28118;-48
2021/05/18 02:27:59;;;;;;;3.83;3.52;;;;;;;14.22;85.21;99223.46;1772744;79;22169;-52
2021/05/18 02:30:26;;;;;;;3.92;3.55;;;;;;;14.31;84.89;99223.08;1775058;79;21038;-48
2021/05/18 02:32:54;;;;;;;4.17;3.87;;;;;;;14.31;84.68;99225.27;1776852;79;21010;-51
2021/05/18 02:35:22;;;;;;;4.25;3.85;;;;;;;14.28;84.59;99218.85;1773008;79;21041;-44
2021/05/18 02:37:49;;;;;;;4.08;3.77;;;;;;;14.28;84.57;99226.89;1774908;80;21060;-45
2021/05/18 02:40:23;;;;;;;3.83;3.45;;;;;;;14.27;84.59;99220.70;1772857;79;21001;-55
2021/05/18 02:42:51;;;;;;;4.85;4.45;;;;;;;14.29;84.59;99219.22;1711089;82;21097;-45
2021/05/18 02:50:36;;;;;;;5.83;4.60;;;;;;;14.24;86.10;99221.48;1759284;80;21006;-45
2021/05/18 02:53:04;;;;;;;4.45;4.05;;;;;;;14.25;86.16;99224.51;1759640;80;21521;-45
2021/05/18 02:55:59;;;;;;;4.72;4.22;;;;;;;14.26;86.32;99228.40;1761106;80;21002;-45
2021/05/18 02:58:06;;;;;;;5.25;4.78;;;;;;;14.28;86.21;99229.58;1750446;80;21034;-44
2021/05/18 03:00:32;;;;;;;5.42;4.92;;;;;;;14.30;86.21;99235.65;1758823;80;21038;-46
2021/05/18 03:02:59;;;;;;;4.35;3.95;;;;;;;14.31;86.36;99229.78;1760892;80;21010;-46
2021/05/18 03:05:26;;;;;;;4.83;4.42;;;;;;;14.32;86.40;99225.63;1712144;82;20986;-46
2021/05/18 03:07:54;;;;;;;4.80;4.40;;;;;;;14.34;86.45;99219.63;1759904;80;21022;-45
2021/05/18 03:10:21;;;;;;;5.58;4.80;;;;;;;14.35;86.48;99227.17;1761714;80;21507;-44
2021/05/18 03:12:48;;;;;;;4.60;4.20;;;;;;;14.36;86.63;99231.03;1762269;80;20998;-50
2021/05/18 03:15:16;;;;;;;5.58;5.08;;;;;;;14.36;86.62;99236.41;1763092;80;21505;-46
2021/05/18 03:17:43;;;;;;;4.95;4.55;;;;;;;14.39;86.60;99236.14;1760221;80;20974;-45
2021/05/18 03:20:15;;;;;;;4.65;4.25;;;;;;;14.40;86.58;99236.47;1761826;80;21543;-54
2021/05/18 03:22:42;;;;;;;5.28;4.78;;;;;;;14.43;86.57;99240.20;1757803;80;21059;-45
2021/05/18 03:25:09;;;;;;;5.80;5.30;;;;;;;14.44;86.73;99237.89;1759500;80;20961;-53
2021/05/18 03:27:36;;;;;;;5.72;5.20;;;;;;;14.43;87.16;99248.25;1757489;80;21581;-51
2021/05/18 03:30:20;;;;;;;4.62;4.17;;;;;;;14.43;87.16;99247.41;1760229;80;20993;-48
2021/05/18 03:35:23;;;;;;;6.47;5.67;;;;;;;14.46;87.34;99243.09;1756471;80;21929;-48
2021/05/18 03:37:55;;;;;;;6.50;5.90;;;;;;;14.47;87.60;99239.44;1758584;80;21845;-48
2021/05/18 03:40:22;;;;;;;5.40;4.90;;;;;;;14.50;87.66;99247.19;1706570;82;21013;-51
2021/05/18 03:45:30;;;;;;;6.17;5.60;;;;;;;14.54;88.07;99249.98;1622869;85;21056;-46
2021/05/18 03:53:39;;;;;;;6.45;5.75;;;;;;;14.58;88.67;99243.81;1612712;87;21698;-51
2021/05/18 03:58:57;;;;;;;5.97;5.40;;;;;;;14.62;88.80;99246.06;1687000;83;21042;-48
2021/05/18 04:04:16;;;;;;;7.42;6.62;;;;;;;14.69;88.85;99245.84;1688500;83;21045;-42
2021/05/18 04:17:24;;;;;;;6.47;5.87;;;;;;;14.81;89.19;99255.04;1669263;83;21063;-52
2021/05/18 04:20:19;;;;;;;6.20;4.97;;;;;;;14.84;89.20;99253.40;1672788;83;21062;-51
2021/05/18 04:25:08;;;;;;;7.35;6.50;;;;;;;14.87;89.34;99257.99;1772272;79;21001;-50
2021/05/18 04:50:08;;;;;;;6.78;6.08;;;;;;;15.06;88.92;99258.91;1766834;80;20998;-48
2021/05/18 04:51:53;;;;;;;;;;;;;;;15.08;88.96;99257.77;1743565;80;21328;-48
2021/05/18 04:59:48;;;;;;;7.30;6.65;;;;;;;15.09;88.93;99265.31;1769988;79;21069;-50
2021/05/18 05:07:10;;;;;;;7.75;6.95;;;;;;;15.19;88.88;99264.77;1700781;83;21012;-52
2021/05/18 05:09:47;;;;;;;7.70;6.97;;;;;;;15.22;88.84;99260.47;1699540;82;21551;-48
2021/05/18 05:14:48;;;;;;;7.58;6.87;;;;;;;15.29;88.77;99252.14;1635959;86;21082;-52
2021/05/18 05:17:14;;;;;;;8.65;7.75;;;;;;;15.31;88.73;99239.42;1701166;83;21012;-51
2021/05/18 05:19:42;;;;;;;8.05;7.35;;;;;;;15.34;88.65;99236.92;1699462;82;21598;-51
2021/05/18 05:22:08;;;;;;;7.90;7.20;;;;;;;15.36;88.60;99243.00;1700311;83;21009;-52
2021/05/18 05:24:37;;;;;;;8.15;7.35;;;;;;;15.39;88.55;99241.85;1701177;83;21065;-55
2021/05/18 05:27:04;;;;;;;7.72;6.92;;;;;;;15.42;88.55;99245.58;1703719;83;21013;-51
2021/05/18 05:29:30;;;;;;;7.95;7.25;;;;;;;15.45;88.57;99242.61;1702522;82;21535;-51
2021/05/18 05:31:57;;;;;;;8.45;7.70;;;;;;;15.47;88.53;99245.50;1697205;83;21053;-52
2021/05/18 05:34:23;;;;;;;9.20;8.30;;;;;;;15.50;88.51;99256.44;1700132;82;21012;-53
2021/05/18 05:36:50;;;;;;;8.68;7.87;;;;;;;15.52;88.53;99249.05;1696532;83;21524;-53
2021/05/18 05:39:23;;;;;;;9.88;8.98;;;;;;;15.56;88.55;99243.73;1700917;83;21037;-50
2021/05/18 05:41:54;;;;;;;10.95;9.73;;;;;;;15.59;88.60;99240.23;1699141;82;21543;-49
2021/05/18 05:44:24;;;;;;;12.95;8.75;;;;;;;15.63;88.64;99236.76;1732145;79;21017;-48
2021/05/18 05:46:51;;;;;;;9.53;8.70;;;;;;;15.66;88.66;99236.45;1767723;80;21095;-51
2021/05/18 05:49:17;;;;;;;9.68;8.58;;;;;;;15.70;88.64;99232.98;1763414;80;20995;-54
2021/05/18 05:51:44;;;;;;;8.95;8.15;;;;;;;15.73;88.58;99235.38;1736144;81;21002;-50
2021/05/18 05:54:11;;;;;;;9.35;8.45;;;;;;;15.77;88.53;99242.12;1698331;82;20998;-57
2021/05/18 05:56:38;;;;;;;9.33;8.43;;;;;;;15.81;88.54;99239.99;1700761;82;21049;-54
2021/05/18 05:59:08;;;;;;;8.98;8.18;;;;;;;15.84;88.61;99242.37;1770649;80;20990;-54
2021/05/18 06:01:36;;;;;;;9.80;8.90;;;;;;;15.88;88.68;99238.39;1774416;79;21026;-51
2021/05/18 06:04:03;;;;;;;9.48;8.68;;;;;;;15.91;88.72;99239.42;1760424;80;21242;-51
2021/05/18 06:06:30;;;;;;;9.30;8.45;;;;;;;15.93;88.67;99242.80;1771627;79;21508;-58
2021/05/18 06:08:56;;;;;;;8.80;8.00;;;;;;;15.95;88.67;99241.65;1701222;82;21010;-55
2021/05/18 06:14:07;;;;;;;8.58;7.17;;;;;;;16.03;88.48;99237.32;1636139;86;21093;-51
2021/05/18 06:49:43;;;;;;;8.70;7.80;;;;;;;16.59;87.78;99213.22;1498277;94;21879;-49
2021/05/18 06:52:07;;;;;;;7.25;6.60;;;;;;;16.65;87.67;99214.75;1461185;96;21109;-48
2021/05/18 06:54:34;;;;;;;7.92;7.15;;;;;;;16.70;87.54;99206.20;1434655;99;21111;-46
2021/05/18 06:57:05;;;;;;;7.08;6.37;;;;;;;16.75;87.41;99200.35;1431020;99;21142;-48
2021/05/18 07:01:59;;;;;;;6.67;6.08;;;;;;;16.82;87.29;99202.78;1466709;96;21104;-49
2021/05/18 07:04:26;;;;;;;7.05;6.40;;;;;;;16.85;87.12;99203.29;1479083;95;21092;-51
2021/05/18 07:07:08;;;;;;;6.25;5.65;;;;;;;16.89;86.88;99198.45;1479205;96;21095;-53
2021/05/18 07:09:32;;;;;;;6.90;6.25;;;;;;;16.92;86.80;99202.66;1481885;95;21166;-48
2021/05/18 07:12:06;;;;;;;27.42;24.72;;;;;;;16.95;86.72;99199.64;1479382;95;21127;-47
2021/05/18 07:14:40;;;;;;;9.30;8.40;;;;;;;16.97;86.56;99198.98;1474931;96;21602;-50
2021/05/18 07:17:09;;;;;;;6.62;6.03;;;;;;;17.01;86.45;99206.58;1471074;96;21152;-49
2021/05/18 07:19:36;;;;;;;6.72;6.03;;;;;;;17.05;86.35;99200.36;1472354;96;21084;-50
2021/05/18 07:22:03;;;;;;;7.03;6.30;;;;;;;17.06;86.19;99199.38;1496208;94;21112;-51
2021/05/18 07:24:30;;;;;;;7.25;6.65;;;;;;;17.07;86.09;99199.19;1501373;94;21067;-51
2021/05/18 07:26:58;;;;;;;7.90;7.20;;;;;;;17.12;86.08;99197.88;1476206;96;21097;-52
2021/05/18 07:29:24;;;;;;;7.17;6.30;;;;;;;17.14;86.02;99194.52;1475476;96;21641;-50
2021/05/18 07:31:51;;;;;;;6.80;6.12;;;;;;;17.15;85.82;99195.69;1527211;90;21082;-48
2021/05/18 07:34:26;;;;;;;6.72;6.12;;;;;;;17.16;85.76;99204.12;1565757;90;21143;-48
2021/05/18 07:36:56;;;;;;;6.65;6.05;;;;;;;17.20;85.72;99200.59;1565816;90;21746;-50
2021/05/18 07:39:22;;;;;;;6.53;5.95;;;;;;;17.22;85.53;99203.97;1564291;90;21070;-49
2021/05/18 07:41:49;;;;;;;7.22;6.30;;;;;;;17.23;85.39;99198.91;1582809;89;21639;-52
2021/05/18 07:44:17;;;;;;;7.90;7.20;;;;;;;17.25;85.35;99197.73;1560655;90;21680;-46
2021/05/18 07:46:45;;;;;;;6.80;6.10;;;;;;;17.27;85.22;99200.28;1582522;89;21107;-50
2021/05/18 07:49:17;;;;;;;7.50;6.90;;;;;;;17.28;85.02;99201.95;1591243;89;21064;-53
2021/05/18 08:00:03;;;;;;;7.08;6.45;;;;;;;17.31;84.47;99197.58;1729449;82;20998;-50
2021/05/18 08:05:17;;;;;;;7.67;6.97;;;;;;;17.33;84.44;99198.27;1672507;84;21044;-50
2021/05/18 08:05:23;;;;;;;7.58;6.87;;;;;;;17.38;84.50;99196.43;1670441;84;21068;-49
2021/05/18 08:07:51;;;;;;;7.75;6.83;;;;;;;17.40;84.57;99189.03;1648941;85;21400;-48
2021/05/18 08:10:22;;;;;;;6.35;5.80;;;;;;;17.45;84.61;99197.47;1675122;84;21040;-47
2021/05/18 08:12:48;;;;;;;9.05;7.35;;;;;;;17.48;84.68;99201.17;1650225;85;21045;-45
2021/05/18 09:29:11;;;;;;;5.45;4.95;;;;;;;18.30;83.74;99175.66;1658842;86;21048;-50
2021/05/18 10:34:38;;;;;;;1.70;1.40;;;;;;;19.10;71.85;99061.30;1758351;80;21441;-48
2021/05/18 10:37:25;;;;;;;3.37;1.62;;;;;;;19.08;71.59;99050.69;1757469;81;21018;-51
2021/05/18 10:40:26;;;;;;;2.58;1.87;;;;;;;19.08;71.67;99053.91;1637419;86;21060;-51
2021/05/18 10:43:22;;;;;;;3.47;1.92;;;;;;;19.04;71.67;99061.52;1595612;88;22049;-49
2021/05/18 10:46:01;;;;;;;2.50;1.90;;;;;;;19.03;71.70;99074.70;1596498;88;21029;-52
2021/05/18 10:48:35;;;;;;;2.52;1.30;;;;;;;18.98;71.94;99102.23;1598273;88;21081;-50
2021/05/18 10:51:34;;;;;;;4.15;1.10;;;;;;;18.89;71.42;99103.80;1600071;88;21053;-55
2021/05/18 10:54:28;;;;;;;1.47;1.02;;;;;;;18.76;70.02;99101.66;1596225;88;21083;-51
2021/05/18 10:57:02;;;;;;;1.50;0.70;;;;;;;18.57;68.46;99105.56;1599721;88;21049;-53
2021/05/18 10:59:40;;;;;;;19.27;15.53;;;;;;;18.34;68.32;99098.73;1598505;88;21073;-53
2021/05/18 11:02:14;;;;;;;8.93;4.95;;;;;;;18.16;68.55;99103.83;1602424;88;21089;-49
2021/05/18 11:04:45;;;;;;;4.00;1.75;;;;;;;18.00;69.37;99110.61;1601378;88;21100;-47
2021/05/18 11:07:15;;;;;;;3.05;1.32;;;;;;;17.86;70.44;99111.28;1597805;88;21117;-52
2021/05/18 11:09:42;;;;;;;3.67;1.50;;;;;;;17.71;71.19;99110.60;1598158;88;21372;-51
2021/05/18 11:12:11;;;;;;;3.98;1.17;;;;;;;17.61;71.65;99115.80;1599677;88;21085;-48
2021/05/18 11:14:45;;;;;;;5.65;1.25;;;;;;;17.50;71.78;99110.24;1596386;88;21044;-50
2021/05/18 11:17:20;;;;;;;5.20;1.65;;;;;;;17.41;72.35;99108.05;1656060;84;21025;-52
2021/05/18 11:20:13;;;;;;;4.33;1.37;;;;;;;17.33;73.32;99093.20;1720512;81;21504;-52
2021/05/18 11:23:23;;;;;;;3.83;1.27;;;;;;;17.25;74.12;99091.34;1711591;83;21078;-52
2021/05/18 11:26:05;;;;;;;3.35;1.15;;;;;;;17.18;74.74;99099.74;1680338;84;21066;-51
2021/05/18 11:28:49;;;;;;;4.08;1.92;;;;;;;17.09;75.29;99085.43;1681356;84;20982;-53
2021/05/18 11:31:26;;;;;;;4.67;1.50;;;;;;;17.02;75.90;99070.09;1678485;84;21019;-47
2021/05/18 11:33:59;;;;;;;4.50;1.40;;;;;;;16.96;76.24;99057.28;1680120;84;21478;-48
2021/05/18 11:36:31;;;;;;;5.05;1.75;;;;;;;16.92;76.62;99052.74;1684304;84;21082;-49
2021/05/18 11:39:14;;;;;;;4.35;1.60;;;;;;;16.87;77.10;99055.92;1679159;85;21616;-47
2021/05/18 11:41:42;;;;;;;6.28;1.85;;;;;;;16.83;77.62;99058.63;1683217;84;21054;-52
2021/05/18 11:44:10;;;;;;;2.52;1.60;;;;;;;16.79;78.00;99063.14;1681527;83;21162;-48
2021/05/18 11:46:51;;;;;;;2.70;1.40;;;;;;;16.77;78.28;99067.81;1681572;83;21050;-48
2021/05/18 11:49:19;;;;;;;2.08;0.93;;;;;;;16.76;78.60;99072.36;1700374;83;21060;-48
2021/05/18 11:51:52;;;;;;;5.85;1.70;;;;;;;16.76;78.96;99075.55;1734694;81;21036;-48
2021/05/18 11:54:21;;;;;;;2.10;1.10;;;;;;;16.74;79.25;99077.05;1714982;82;21058;-49
2021/05/18 11:56:51;;;;;;;3.00;1.12;;;;;;;16.73;79.56;99081.24;1770560;79;20964;-47
2021/05/18 11:59:20;;;;;;;3.50;1.45;;;;;;;16.71;79.91;99085.46;1772895;80;20997;-47
2021/05/18 12:02:02;;;;;;;4.67;1.42;;;;;;;16.69;80.33;99095.54;1776176;79;21005;-48
2021/05/18 12:04:30;;;;;;;2.50;1.40;;;;;;;16.68;80.73;99094.34;1773253;79;21531;-51
2021/05/18 12:07:03;;;;;;;4.15;2.42;;;;;;;16.67;81.15;99078.70;1775676;79;21005;-50
2021/05/18 12:09:35;;;;;;;4.72;1.87;;;;;;;16.66;81.46;99070.30;1764554;80;20990;-50
2021/05/18 12:12:07;;;;;;;5.30;1.95;;;;;;;16.65;81.75;99064.05;1778483;79;21022;-54
2021/05/18 12:14:47;;;;;;;2.80;1.37;;;;;;;16.64;81.88;99055.66;1773042;80;20992;-48
2021/05/18 12:17:31;;;;;;;2.25;1.50;;;;;;;16.62;81.87;99052.78;1771132;79;21010;-53
2021/05/18 12:19:59;;;;;;;2.17;1.82;;;;;;;16.62;81.81;99039.33;1779511;79;21563;-53
2021/05/18 12:22:26;;;;;;;3.08;1.02;;;;;;;16.59;81.83;99028.39;1686913;83;21006;-54
2021/05/18 12:24:55;;;;;;;3.12;1.62;;;;;;;16.58;81.73;99031.23;1771582;79;20969;-48
2021/05/18 12:27:21;;;;;;;3.25;2.40;;;;;;;16.57;81.78;99031.74;1778429;80;21009;-47
2021/05/18 12:29:53;;;;;;;2.70;2.47;;;;;;;16.55;81.65;99040.47;1773600;79;21033;-47
2021/05/18 12:32:34;;;;;;;2.65;2.40;;;;;;;16.55;81.73;99038.30;1773520;80;21021;-46
2021/05/18 12:35:20;;;;;;;3.02;2.83;;;;;;;16.55;81.92;99035.09;1778302;79;21009;-47
2021/05/18 12:37:53;;;;;;;2.58;2.25;;;;;;;16.53;82.05;99029.53;1777637;80;21014;-45
2021/05/18 12:40:34;;;;;;;2.30;1.57;;;;;;;16.53;81.93;99033.57;1772557;79;21048;-44
2021/05/18 12:43:20;;;;;;;1.45;1.22;;;;;;;16.53;81.96;99041.64;1772083;80;21100;-46
2021/05/18 12:45:46;;;;;;;3.25;1.37;;;;;;;16.52;82.06;99037.28;1769862;79;21559;-46
2021/05/18 12:48:13;;;;;;;2.52;1.27;;;;;;;16.53;82.27;99043.86;1709248;83;21006;-46
2021/05/18 12:50:49;;;;;;;4.75;1.62;;;;;;;16.55;82.45;99044.51;1740113;81;21069;-46
2021/05/18 12:53:28;;;;;;;2.42;1.55;;;;;;;16.54;82.54;99043.34;1775256;80;21025;-54
2021/05/18 12:55:55;;;;;;;2.85;1.90;;;;;;;16.54;82.74;99042.84;1713121;82;21065;-47
2021/05/18 12:58:28;;;;;;;2.37;1.17;;;;;;;16.55;83.04;99045.02;1773084;80;21009;-54
2021/05/18 13:01:13;;;;;;;2.77;1.57;;;;;;;16.56;83.39;99040.00;1772830;79;21038;-47
2021/05/18 13:03:41;;;;;;;2.30;1.52;;;;;;;16.50;83.39;99032.56;1778729;79;21340;-50
2021/05/18 13:06:08;;;;;;;2.47;0.98;;;;;;;16.47;83.53;99030.20;1746440;80;21001;-50
2021/05/18 13:08:37;;;;;;;1.57;1.00;;;;;;;16.49;83.82;99033.06;1773156;80;21001;-51
2021/05/18 13:13:59;;;;;;;2.85;1.42;;;;;;;16.55;83.86;99043.16;1770557;79;21005;-51
2021/05/18 13:16:25;;;;;;;4.42;2.27;;;;;;;16.66;84.13;99039.36;1775470;79;21574;-46
2021/05/18 13:19:10;;;;;;;2.92;2.15;;;;;;;16.75;84.19;99032.14;1779231;80;21017;-51
2021/05/18 13:21:59;;;;;;;3.27;1.47;;;;;;;16.84;83.82;99033.37;1772109;79;20993;-52
2021/05/18 13:27:10;;;;;;;6.67;4.78;;;;;;;17.12;83.77;99024.17;1775115;80;21010;-50
2021/05/18 13:29:37;;;;;;;4.97;2.47;;;;;;;17.26;83.82;99026.19;1775485;80;21520;-54
2021/05/18 13:32:05;;;;;;;3.35;2.22;;;;;;;17.38;83.88;99034.79;1776509;80;21028;-56
2021/05/18 13:34:32;;;;;;;2.45;1.62;;;;;;;17.47;84.07;99035.14;1769274;79;21025;-56
2021/05/18 13:36:59;;;;;;;3.62;1.72;;;;;;;17.55;84.12;99045.07;1770586;80;21020;-55
2021/05/18 13:39:25;;;;;;;3.22;1.57;;;;;;;17.60;84.02;99039.50;1776727;79;21496;-52
2021/05/18 13:41:52;;;;;;;2.05;1.77;;;;;;;17.61;83.42;99033.60;1771289;80;21021;-53
2021/05/18 13:44:19;;;;;;;3.30;1.22;;;;;;;17.60;82.75;99037.31;1713499;82;21110;-54
2021/05/18 13:46:46;;;;;;;1.67;1.30;;;;;;;17.60;82.09;99040.02;1719452;83;21029;-51
2021/05/18 13:49:14;;;;;;;2.35;1.10;;;;;;;17.59;81.44;99039.66;1740683;81;20996;-51
2021/05/18 13:51:43;;;;;;;3.00;1.37;;;;;;;17.58;81.22;99052.81;1690892;83;21054;-53
2021/05/18 13:54:11;;;;;;;2.67;1.20;;;;;;;17.54;81.24;99048.27;1694306;84;21079;-52
2021/05/18 13:56:37;;;;;;;3.87;1.57;;;;;;;17.49;81.43;99035.81;1730560;81;20978;-53
2021/05/18 13:59:04;;;;;;;2.25;1.22;;;;;;;17.41;81.70;99029.05;1760426;79;21064;-49
2021/05/18 14:01:32;;;;;;;2.52;1.60;;;;;;;17.31;81.84;99014.41;1762377;80;21034;-50
2021/05/18 14:03:58;;;;;;;1.15;1.02;;;;;;;17.20;82.18;99009.36;1763131;79;21041;-51
2021/05/18 14:06:25;;;;;;;2.05;1.20;;;;;;;17.07;82.58;99014.73;1763287;80;21043;-56
2021/05/18 14:08:53;;;;;;;3.72;1.30;;;;;;;17.02;83.04;99011.70;1766210;80;20991;-49
2021/05/18 14:11:21;;;;;;;3.10;1.70;;;;;;;17.03;83.18;99009.84;1767085;79;21005;-53
2021/05/18 14:13:54;;;;;;;2.47;1.30;;;;;;;17.04;83.29;99014.23;1769821;80;21881;-50
2021/05/18 14:16:22;;;;;;;2.72;2.27;;;;;;;17.08;83.63;99018.27;1769322;79;21400;-55
2021/05/18 14:18:54;;;;;;;2.60;1.97;;;;;;;17.12;84.02;99018.79;1758800;79;22076;-54
2021/05/18 14:21:22;;;;;;;2.35;1.80;;;;;;;17.13;84.30;99017.77;1727544;81;21607;-52
2021/05/18 14:26:16;;;;;;;2.55;1.70;;;;;;;17.14;84.10;99016.78;1729392;81;21560;-55
2021/05/18 14:28:44;;;;;;;2.77;1.70;;;;;;;17.13;84.14;99000.27;1771370;80;20989;-51
2021/05/18 14:31:12;;;;;;;2.33;1.75;;;;;;;17.11;84.31;99000.93;1762436;79;20986;-53
2021/05/18 14:33:40;;;;;;;1.90;1.50;;;;;;;17.13;84.37;99001.61;1771306;80;21620;-51
2021/05/18 14:36:07;;;;;;;4.92;1.98;;;;;;;17.14;84.33;99000.63;1770342;80;21025;-49
2021/05/18 14:38:35;;;;;;;5.00;2.75;;;;;;;17.18;84.26;99012.72;1763426;80;21008;-50
2021/05/18 14:46:40;;;;;;;2.10;1.65;;;;;;;17.25;84.48;99009.70;1772190;80;20986;-48
2021/05/18 14:56:50;;;;;;;5.28;2.05;;;;;;;17.23;84.60;99013.90;1762432;79;20982;-52
2021/05/18 14:59:16;;;;;;;3.08;1.87;;;;;;;17.26;84.55;99010.02;1773430;79;21037;-52
2021/05/18 15:01:47;;;;;;;2.55;1.92;;;;;;;17.27;84.54;99010.38;1773591;79;21469;-50
2021/05/18 15:04:14;;;;;;;3.35;2.85;;;;;;;17.30;84.56;99013.56;1673016;84;21065;-50
2021/05/18 15:06:43;;;;;;;5.00;2.55;;;;;;;17.32;84.64;99010.72;1668570;84;21061;-51
2021/05/18 15:09:10;;;;;;;1.95;1.60;;;;;;;17.32;84.74;99009.88;1637978;86;21048;-51
2021/05/18 15:11:36;;;;;;;2.22;1.42;;;;;;;17.34;84.82;99007.84;1635945;86;21380;-54
2021/05/18 15:14:05;;;;;;;3.12;1.40;;;;;;;17.37;84.81;99005.66;1636461;86;21027;-52
2021/05/18 15:16:32;;;;;;;2.37;1.67;;;;;;;17.39;84.63;98995.56;1639208;86;21036;-53
2021/05/18 15:19:10;;;;;;;2.25;1.70;;;;;;;17.40;84.44;98999.94;1635494;86;21029;-52
2021/05/18 15:21:33;;;;;;;1.37;1.20;;;;;;;17.43;84.16;99001.45;1616114;86;21036;-51
2021/05/18 15:24:01;;;;;;;1.65;1.12;;;;;;;17.47;83.57;99002.80;1636446;86;21004;-50
2021/05/18 15:26:27;;;;;;;2.60;1.40;;;;;;;17.49;82.83;99006.17;1639947;86;21496;-53
2021/05/18 15:28:54;;;;;;;1.37;1.27;;;;;;;17.51;82.38;98995.56;1635832;86;21029;-54
2021/05/18 15:31:20;;;;;;;2.17;1.52;;;;;;;17.53;82.04;98991.33;1638542;86;20997;-52
2021/05/18 15:33:47;;;;;;;1.72;1.55;;;;;;;17.55;82.10;98981.23;1635039;86;21080;-53
2021/05/18 15:36:14;;;;;;;2.20;1.67;;;;;;;17.57;82.06;98981.08;1637225;86;21017;-52
2021/05/18 15:38:44;;;;;;;2.60;1.55;;;;;;;17.57;82.07;98974.34;1637907;86;21005;-55
2021/05/18 15:41:12;;;;;;;2.33;1.30;;;;;;;17.58;82.08;98974.66;1640212;86;21064;-55
2021/05/18 15:43:39;;;;;;;3.20;1.60;;;;;;;17.60;81.89;98980.22;1637556;86;21112;-52
2021/05/18 15:46:06;;;;;;;2.67;1.42;;;;;;;17.65;81.80;98976.50;1635645;86;20977;-55
2021/05/18 15:48:33;;;;;;;2.22;1.52;;;;;;;17.67;81.70;98973.13;1637258;86;21037;-52
2021/05/18 15:51:00;;;;;;;3.50;1.40;;;;;;;17.67;81.21;98987.13;1630765;86;21040;-54
2021/05/18 15:53:26;;;;;;;2.33;1.57;;;;;;;17.68;80.74;98999.06;1630912;86;21065;-51
2021/05/18 15:55:53;;;;;;;3.92;1.25;;;;;;;17.66;80.88;98996.20;1631961;86;21065;-53
2021/05/18 15:58:19;;;;;;;5.12;1.37;;;;;;;17.61;81.53;98987.27;1630686;86;21047;-49
2021/05/18 16:00:47;;;;;;;4.45;1.82;;;;;;;17.57;82.07;98980.56;1633347;86;21093;-48
2021/05/18 16:03:15;;;;;;;2.40;1.40;;;;;;;17.53;82.54;98972.47;1630508;86;21042;-54
2021/05/18 16:05:43;;;;;;;2.30;1.20;;;;;;;17.50;83.09;98979.04;1634553;86;21360;-56
2021/05/18 16:10:58;;;;;;;4.92;1.65;;;;;;;17.45;83.79;98977.36;1628878;86;21045;-52
2021/05/18 16:13:26;;;;;;;3.62;1.60;;;;;;;17.42;83.94;98984.45;1772168;80;20997;-52
2021/05/18 16:16:02;;;;;;;2.75;1.72;;;;;;;17.39;84.08;98978.57;1734414;81;21021;-47
2021/05/18 16:18:34;;;;;;;3.77;1.90;;;;;;;17.37;84.21;98973.34;1775924;79;20997;-48
2021/05/18 16:21:01;;;;;;;2.22;1.52;;;;;;;17.34;84.36;98967.43;1779079;79;20991;-50
2021/05/18 16:23:28;;;;;;;4.75;1.40;;;;;;;17.34;84.36;98967.43;1777491;79;21051;-52
2021/05/18 16:25:58;;;;;;;1.60;1.20;;;;;;;17.34;84.40;98951.27;1775111;80;21041;-48
2021/05/18 16:28:24;;;;;;;2.25;1.65;;;;;;;17.32;84.37;98958.19;1775520;80;20998;-52
2021/05/18 16:30:51;;;;;;;3.52;1.65;;;;;;;17.33;84.38;98963.06;1771656;80;21005;-43
2021/05/18 16:33:18;;;;;;;4.37;1.40;;;;;;;17.32;84.24;98966.27;1770414;79;20969;-49
2021/05/18 16:35:45;;;;;;;1.67;1.07;;;;;;;17.32;84.16;98946.58;1772350;79;20959;-44
2021/05/18 16:38:11;;;;;;;2.25;1.57;;;;;;;17.31;84.21;98953.80;1769155;79;20998;-45
2021/05/18 16:40:38;;;;;;;2.37;1.80;;;;;;;17.29;84.29;98955.84;1771491;79;20987;-43
2021/05/18 16:43:06;;;;;;;6.65;2.33;;;;;;;17.27;84.19;98954.66;1770770;80;21416;-44